Time;durP1;ratioP1;P1;durP2;ratioP2;P2;SDS_P1;SDS_P2;PMS_P1;PMS_P2;Temp;Humidity;BMP_temperature;BMP_pressure;BME280_temperature;BME280_humidity;BME280_pressure;Samples;Min_cycle;Max_cycle;Signal;HPM_P1;HPM_P2
2021/09/12 00:00:17;;;;;;;13.35;9.53;;;;;;;18.60;56.55;99052.79;1854694;76;27945;-63
2021/09/12 00:02:52;;;;;;;15.05;10.15;;;;;;;18.62;56.56;99048.37;1854726;76;28056;-65
2021/09/12 00:05:46;;;;;;;14.58;9.65;;;;;;;18.65;56.70;99050.49;1889950;76;22561;-64
2021/09/12 00:08:21;;;;;;;13.80;9.43;;;;;;;18.62;56.85;99052.29;1870639;76;22164;-61
2021/09/12 00:10:56;;;;;;;11.57;9.48;;;;;;;18.57;56.99;99050.22;1870694;76;22148;-58
2021/09/12 00:13:31;;;;;;;15.53;11.08;;;;;;;18.51;57.25;99054.27;1854739;76;28330;-62
2021/09/12 00:16:06;;;;;;;17.23;12.25;;;;;;;18.49;57.67;99049.52;1870664;76;22140;-60
2021/09/12 00:18:42;;;;;;;23.32;17.20;;;;;;;18.37;58.52;99048.87;1873873;76;28015;-58
2021/09/12 00:21:18;;;;;;;23.20;18.15;;;;;;;18.31;59.36;99047.67;1889991;76;22175;-61
2021/09/12 00:23:54;;;;;;;23.47;17.07;;;;;;;18.16;60.66;99051.42;1890321;76;22253;-58
2021/09/12 00:26:29;;;;;;;19.57;15.83;;;;;;;17.77;62.31;99047.75;1889983;76;22108;-59
2021/09/12 00:29:05;;;;;;;21.52;15.93;;;;;;;17.81;62.12;99048.58;1890045;76;22139;-60
2021/09/12 00:31:41;;;;;;;16.30;11.48;;;;;;;17.68;62.27;99044.86;1873871;76;27971;-62
2021/09/12 00:34:17;;;;;;;15.23;11.97;;;;;;;17.70;61.71;99046.13;1854622;76;27919;-63
2021/09/12 00:36:53;;;;;;;14.83;10.85;;;;;;;17.77;61.62;99047.75;1889958;76;20097;-61
2021/09/12 00:39:32;;;;;;;14.38;10.78;;;;;;;17.78;61.50;99050.77;1870438;76;22595;-61
2021/09/12 00:42:06;;;;;;;15.58;11.73;;;;;;;17.76;61.52;99048.20;1870788;76;22551;-61
2021/09/12 00:44:41;;;;;;;20.35;13.98;;;;;;;17.62;62.54;99045.39;1870685;76;22113;-60
2021/09/12 00:47:16;;;;;;;18.82;14.70;;;;;;;17.55;62.69;99057.25;1870612;76;22578;-59
2021/09/12 00:49:52;;;;;;;21.68;16.52;;;;;;;17.58;63.05;99046.75;1854604;76;27922;-61
2021/09/12 00:52:36;;;;;;;20.92;15.43;;;;;;;17.48;63.52;99053.00;1890025;76;22188;-60
2021/09/12 00:55:13;;;;;;;25.27;16.42;;;;;;;17.32;64.34;99053.66;1870579;76;22189;-59
2021/09/12 00:57:50;;;;;;;21.65;15.25;;;;;;;17.18;65.15;99050.86;1834989;77;22175;-63
2021/09/12 01:00:26;;;;;;;21.15;15.32;;;;;;;17.04;65.79;99047.13;1870630;76;22105;-61
2021/09/12 01:03:01;;;;;;;21.60;16.55;;;;;;;16.92;66.10;99043.81;1854854;76;27929;-56
2021/09/12 01:05:37;;;;;;;23.25;17.00;;;;;;;16.91;66.39;99039.91;1870751;76;22168;-62
2021/09/12 01:08:18;;;;;;;24.65;18.73;;;;;;;16.84;67.11;99043.48;1889977;76;22180;-59
2021/09/12 01:10:54;;;;;;;25.97;19.35;;;;;;;16.75;67.57;99041.83;1870540;76;22168;-62
2021/09/12 01:13:29;;;;;;;27.65;17.27;;;;;;;16.66;67.95;99041.52;1870701;76;22105;-62
2021/09/12 01:16:18;;;;;;;22.95;16.37;;;;;;;16.61;67.93;99038.11;1870689;76;22137;-57
2021/09/12 01:18:53;;;;;;;23.07;17.23;;;;;;;16.61;68.55;99040.72;1890003;76;22112;-59
2021/09/12 01:21:28;;;;;;;30.15;20.52;;;;;;;16.76;68.71;99041.39;1870719;76;22128;-62
2021/09/12 01:24:08;;;;;;;24.92;18.10;;;;;;;16.84;68.07;99050.88;1890072;76;22164;-59
2021/09/12 01:26:43;;;;;;;23.35;17.60;;;;;;;16.79;67.73;99045.28;1870615;76;22186;-58
2021/09/12 01:29:18;;;;;;;24.25;18.25;;;;;;;16.73;67.70;99044.03;1870674;76;22120;-60
2021/09/12 01:31:53;;;;;;;27.13;17.80;;;;;;;16.67;68.01;99048.45;1889963;76;22574;-60
2021/09/12 01:34:28;;;;;;;23.62;17.55;;;;;;;16.59;68.08;99042.47;1870655;76;22141;-61
2021/09/12 01:37:04;;;;;;;24.05;17.62;;;;;;;16.53;68.07;99043.83;1854725;76;28006;-62
2021/09/12 01:39:38;;;;;;;24.87;16.37;;;;;;;16.53;67.87;99046.44;1890017;76;22164;-63
2021/09/12 01:42:13;;;;;;;21.17;14.90;;;;;;;16.48;67.61;99039.11;1870682;76;22239;-60
2021/09/12 01:44:50;;;;;;;26.90;17.07;;;;;;;16.46;67.38;99040.86;1889956;76;22180;-61
2021/09/12 01:47:25;;;;;;;27.52;18.10;;;;;;;16.44;67.37;99045.26;1870674;76;22579;-61
2021/09/12 01:50:07;;;;;;;24.20;17.35;;;;;;;16.42;67.43;99044.41;1869826;76;22133;-61
2021/09/12 01:52:48;;;;;;;24.95;18.00;;;;;;;16.39;67.61;99037.94;1869832;76;22599;-61
2021/09/12 01:55:24;;;;;;;22.90;15.90;;;;;;;16.36;68.17;99035.34;1870444;76;22590;-63
2021/09/12 01:58:00;;;;;;;25.20;16.97;;;;;;;16.32;68.60;99037.58;1889970;76;22104;-62
2021/09/12 02:00:36;;;;;;;24.15;16.87;;;;;;;16.31;69.21;99034.12;1870491;76;22156;-62
2021/09/12 02:03:11;;;;;;;26.40;17.73;;;;;;;16.32;69.41;99033.67;1870709;76;22141;-61
2021/09/12 02:05:46;;;;;;;27.60;18.23;;;;;;;16.33;69.58;99036.69;1870695;76;22602;-60
2021/09/12 02:08:20;;;;;;;22.93;15.43;;;;;;;16.35;70.92;99034.93;1870682;76;22141;-62
2021/09/12 02:10:55;;;;;;;24.02;15.60;;;;;;;16.38;70.89;99033.14;1870678;76;22563;-63
2021/09/12 02:13:30;;;;;;;25.17;15.40;;;;;;;16.43;70.69;99038.30;1889979;76;22144;-58
2021/09/12 02:16:05;;;;;;;23.62;17.32;;;;;;;16.46;71.14;99035.66;1870681;76;22141;-60
2021/09/12 02:18:40;;;;;;;25.68;16.27;;;;;;;16.49;71.98;99027.38;1870647;76;22159;-59
2021/09/12 02:21:17;;;;;;;20.32;14.65;;;;;;;16.53;72.28;99033.41;1870521;76;22157;-58
2021/09/12 02:23:52;;;;;;;26.77;15.72;;;;;;;16.52;72.39;99032.14;1870713;76;22182;-61
2021/09/12 02:26:28;;;;;;;23.87;17.67;;;;;;;16.54;73.31;99035.16;1870485;76;22189;-59
2021/09/12 02:29:03;;;;;;;28.95;20.97;;;;;;;16.58;77.20;99031.61;1870768;76;22097;-62
2021/09/12 02:31:38;;;;;;;30.62;20.20;;;;;;;16.63;80.09;99031.55;1890136;76;22155;-62
2021/09/12 02:34:31;;;;;;;24.50;18.45;;;;;;;16.65;82.23;99029.36;1870682;76;22137;-59
2021/09/12 02:37:06;;;;;;;37.35;21.82;;;;;;;16.69;84.27;99026.28;1870729;76;22133;-60
2021/09/12 02:39:40;;;;;;;32.90;20.97;;;;;;;16.74;85.91;99024.90;1870730;76;22559;-61
2021/09/12 02:42:17;;;;;;;25.50;18.00;;;;;;;16.76;86.83;99017.48;1890008;76;22163;-63
2021/09/12 02:44:52;;;;;;;28.57;20.08;;;;;;;16.81;86.66;99020.92;1870663;76;22132;-63
2021/09/12 02:47:27;;;;;;;27.55;19.17;;;;;;;16.86;88.01;99023.02;1889967;76;22112;-61
2021/09/12 02:50:03;;;;;;;28.73;16.32;;;;;;;16.88;88.72;99018.66;1889994;76;22148;-60
2021/09/12 02:52:38;;;;;;;22.15;17.75;;;;;;;16.90;89.67;99018.66;1870686;76;22127;-62
2021/09/12 02:55:13;;;;;;;23.67;17.50;;;;;;;16.91;90.22;99016.45;1870697;76;22199;-61
2021/09/12 02:57:48;;;;;;;23.20;17.77;;;;;;;16.93;91.14;99017.30;1873914;76;28360;-61
2021/09/12 03:00:23;;;;;;;22.55;14.63;;;;;;;16.96;90.96;99013.34;1890014;76;22128;-59
2021/09/12 03:02:58;;;;;;;17.87;13.18;;;;;;;16.91;89.40;99015.15;1870656;76;22136;-62
2021/09/12 03:05:33;;;;;;;19.62;15.35;;;;;;;16.84;87.15;99018.72;1889942;76;22570;-64
2021/09/12 03:08:08;;;;;;;17.52;14.60;;;;;;;16.79;87.07;99013.59;1870653;76;22144;-60
2021/09/12 03:10:43;;;;;;;19.52;16.00;;;;;;;16.76;88.10;99017.48;1873898;76;28394;-65
2021/09/12 03:13:18;;;;;;;20.65;15.00;;;;;;;16.76;88.16;99016.63;1889977;76;22139;-60
2021/09/12 03:15:54;;;;;;;20.37;15.05;;;;;;;16.70;88.70;99009.31;1854721;76;27953;-61
2021/09/12 03:18:29;;;;;;;20.88;14.30;;;;;;;16.72;89.82;99008.00;1870690;76;22113;-62
2021/09/12 03:21:03;;;;;;;18.65;14.13;;;;;;;16.73;90.15;99008.41;1870674;76;22181;-62
2021/09/12 03:23:59;;;;;;;19.23;14.78;;;;;;;16.71;90.34;99004.95;1889890;76;22179;-62
2021/09/12 03:26:35;;;;;;;18.05;13.62;;;;;;;16.68;89.92;99013.67;1889934;76;22175;-59
2021/09/12 03:29:10;;;;;;;18.67;13.08;;;;;;;16.66;90.10;99014.16;1870717;76;22144;-57
2021/09/12 03:31:46;;;;;;;16.05;12.78;;;;;;;16.65;90.84;99008.51;1870799;76;22109;-61
2021/09/12 03:34:20;;;;;;;17.75;14.90;;;;;;;16.67;90.98;99011.96;1854798;76;28369;-61
2021/09/12 03:36:55;;;;;;;18.10;13.90;;;;;;;16.73;90.45;99010.16;1870708;76;22182;-61
2021/09/12 03:39:30;;;;;;;21.62;12.95;;;;;;;16.74;89.26;99010.56;1890000;76;22136;-59
2021/09/12 03:42:05;;;;;;;16.35;12.40;;;;;;;16.73;87.88;99010.16;1870603;76;22133;-60
2021/09/12 03:44:41;;;;;;;15.00;11.65;;;;;;;16.79;87.44;99015.31;1870615;76;22152;-61
2021/09/12 03:47:16;;;;;;;16.07;12.33;;;;;;;16.86;88.13;99014.34;1889926;76;22140;-62
2021/09/12 03:49:51;;;;;;;17.00;12.37;;;;;;;16.95;87.42;99016.84;1870750;76;22133;-60
2021/09/12 03:52:26;;;;;;;16.07;12.85;;;;;;;17.01;85.31;99019.34;1854641;76;27937;-63
2021/09/12 03:55:03;;;;;;;17.48;11.68;;;;;;;17.12;85.07;99013.55;1873860;76;28419;-54
2021/09/12 03:57:40;;;;;;;16.12;11.38;;;;;;;17.35;83.66;99016.23;1870631;76;22124;-47
2021/09/12 04:00:17;;;;;;;15.13;11.65;;;;;;;17.58;82.36;99015.44;1870654;76;22547;-62
2021/09/12 04:02:52;;;;;;;15.88;11.88;;;;;;;17.85;79.48;99019.79;1857384;75;22107;-63
2021/09/12 04:05:28;;;;;;;16.07;10.65;;;;;;;17.90;78.86;99024.94;1870392;76;22124;-63
2021/09/12 04:08:04;;;;;;;15.83;11.57;;;;;;;17.89;76.73;99020.16;1870558;76;22177;-65
2021/09/12 04:10:43;;;;;;;16.05;11.20;;;;;;;17.90;74.76;99018.41;1870163;76;22177;-62
2021/09/12 04:13:42;;;;;;;20.35;12.25;;;;;;;17.90;73.53;99023.17;1869797;76;22165;-63
2021/09/12 04:16:18;;;;;;;16.10;12.50;;;;;;;17.89;72.85;99021.92;1854623;76;27933;-62
2021/09/12 04:18:56;;;;;;;16.07;11.70;;;;;;;17.95;72.40;99024.41;1870266;76;22155;-62
2021/09/12 04:21:32;;;;;;;15.72;10.58;;;;;;;17.89;72.43;99022.77;1870676;76;22164;-62
2021/09/12 04:24:09;;;;;;;12.30;9.75;;;;;;;17.94;72.64;99022.70;1870246;76;22175;-62
2021/09/12 04:26:51;;;;;;;13.05;10.50;;;;;;;18.02;72.83;99023.86;1889943;76;22195;-63
2021/09/12 04:29:26;;;;;;;13.70;10.78;;;;;;;18.10;75.35;99019.35;1870672;76;22139;-63
2021/09/12 04:32:20;;;;;;;12.95;9.93;;;;;;;18.17;76.33;99027.50;1870511;76;22153;-64
2021/09/12 04:34:56;;;;;;;17.20;10.80;;;;;;;18.21;75.47;99017.39;1873410;76;27946;-61
2021/09/12 04:37:54;;;;;;;19.10;11.35;;;;;;;18.34;74.14;99020.62;1870707;75;22225;-63
2021/09/12 04:40:30;;;;;;;12.73;9.73;;;;;;;18.78;76.38;99017.14;1870534;76;22144;-63
2021/09/12 04:43:09;;;;;;;11.85;9.10;;;;;;;19.72;70.05;99022.39;1869987;76;22172;-62
2021/09/12 04:46:03;;;;;;;14.98;9.90;;;;;;;20.87;62.66;99028.88;1889941;76;22151;-65
2021/09/12 04:48:58;;;;;;;14.07;9.80;;;;;;;21.94;57.63;99024.59;1889867;76;22164;-65
2021/09/12 04:51:53;;;;;;;16.37;10.90;;;;;;;23.00;54.15;99018.17;1873804;76;27920;-63
2021/09/12 04:54:28;;;;;;;14.90;11.38;;;;;;;23.97;51.88;99021.69;1870599;76;22160;-63
2021/09/12 04:57:04;;;;;;;13.85;10.93;;;;;;;24.83;48.59;99019.66;1854132;76;27946;-66
2021/09/12 04:59:46;;;;;;;12.53;9.80;;;;;;;25.60;45.90;99022.16;1865952;76;22253;-65
2021/09/12 05:02:27;;;;;;;12.85;8.58;;;;;;;26.11;43.99;99024.91;1850201;76;22188;-64
2021/09/12 05:05:05;;;;;;;12.65;8.13;;;;;;;26.49;42.34;99021.58;1868397;76;22610;-62
2021/09/12 05:08:06;;;;;;;11.65;8.43;;;;;;;27.04;40.17;99029.16;1869804;76;22172;-66
2021/09/12 05:10:41;;;;;;;15.33;9.10;;;;;;;27.33;38.91;99024.55;1874044;76;27918;-61
2021/09/12 05:13:15;;;;;;;11.12;8.68;;;;;;;27.60;38.95;99020.77;1870651;76;22124;-62
2021/09/12 05:15:50;;;;;;;18.05;9.50;;;;;;;27.96;37.73;99023.56;1870690;76;22146;-64
2021/09/12 05:18:31;;;;;;;13.18;10.03;;;;;;;28.25;37.42;99017.36;1869839;76;22141;-65
2021/09/12 05:21:07;;;;;;;15.08;10.90;;;;;;;28.60;36.17;99025.00;1854748;76;28019;-62
2021/09/12 05:23:43;;;;;;;14.75;10.65;;;;;;;28.89;35.88;99023.63;1889949;76;22163;-64
2021/09/12 05:26:36;;;;;;;14.65;10.00;;;;;;;29.14;35.35;99019.81;1870643;76;22306;-65
2021/09/12 05:29:18;;;;;;;13.00;10.90;;;;;;;29.33;34.91;99023.92;1889908;76;22200;-63
2021/09/12 05:31:53;;;;;;;12.15;10.45;;;;;;;29.50;34.73;99030.32;1870643;76;22249;-65
2021/09/12 05:34:29;;;;;;;18.20;11.55;;;;;;;29.63;34.71;99027.22;1870387;76;22144;-63
2021/09/12 05:37:05;;;;;;;16.20;11.53;;;;;;;29.69;34.73;99029.97;1870662;76;22224;-64
2021/09/12 05:39:58;;;;;;;15.72;11.12;;;;;;;29.99;34.73;99035.52;1870659;76;22078;-63
2021/09/12 05:42:35;;;;;;;14.93;11.43;;;;;;;30.29;34.09;99032.12;1854613;76;27961;-65
2021/09/12 05:45:11;;;;;;;12.98;10.08;;;;;;;30.73;33.45;99033.95;1870662;76;22470;-63
2021/09/12 05:48:05;;;;;;;12.10;10.13;;;;;;;31.03;32.77;99035.41;1889927;76;22362;-66
2021/09/12 05:51:00;;;;;;;14.50;9.38;;;;;;;31.26;32.55;99036.41;1870654;76;22087;-65
2021/09/12 05:53:35;;;;;;;14.38;10.08;;;;;;;31.56;31.98;99035.98;1854467;76;28629;-63
2021/09/12 05:56:10;;;;;;;14.73;10.45;;;;;;;31.97;31.55;99033.37;1870850;76;22132;-64
2021/09/12 05:59:10;;;;;;;11.33;9.78;;;;;;;32.42;30.71;99035.64;1869810;76;22659;-61
2021/09/12 06:01:44;;;;;;;13.68;9.33;;;;;;;32.80;30.22;99042.98;1870725;76;22346;-66
2021/09/12 06:04:20;;;;;;;12.57;10.40;;;;;;;33.13;29.78;99042.58;1854781;76;27929;-64
2021/09/12 06:07:12;;;;;;;11.40;9.45;;;;;;;33.53;29.67;99044.66;1870842;76;22062;-66
2021/09/12 06:09:48;;;;;;;17.57;10.50;;;;;;;33.62;28.94;99054.16;1854745;76;27929;-66
2021/09/12 06:12:23;;;;;;;14.78;9.83;;;;;;;33.71;28.82;99054.73;1870656;76;22082;-64
2021/09/12 06:14:58;;;;;;;12.85;9.53;;;;;;;33.83;28.89;99060.88;1870661;76;22074;-64
2021/09/12 06:17:33;;;;;;;13.03;9.88;;;;;;;34.02;28.56;99053.95;1888852;76;22157;-65
2021/09/12 06:20:09;;;;;;;13.72;9.33;;;;;;;34.12;28.28;99054.94;1888839;76;22248;-66
2021/09/12 06:22:47;;;;;;;10.75;9.00;;;;;;;34.15;28.03;99060.02;1870653;76;22558;-65
2021/09/12 06:25:21;;;;;;;15.38;9.80;;;;;;;34.11;28.00;99059.91;1889929;76;22646;-66
2021/09/12 06:27:56;;;;;;;13.15;9.95;;;;;;;34.00;28.12;99063.97;1854887;76;27946;-65
2021/09/12 06:30:31;;;;;;;14.40;10.03;;;;;;;34.17;28.11;99067.45;1870686;76;22054;-65
2021/09/12 06:33:06;;;;;;;12.05;9.78;;;;;;;34.18;28.18;99065.11;1870670;76;22082;-66
2021/09/12 06:35:41;;;;;;;13.35;10.25;;;;;;;34.33;28.50;99066.47;1870650;76;22141;-65
2021/09/12 06:38:16;;;;;;;13.58;9.33;;;;;;;34.77;27.97;99064.95;1890076;76;22085;-65
2021/09/12 06:41:10;;;;;;;12.15;9.80;;;;;;;35.36;27.45;99065.50;1870610;76;22133;-65
2021/09/12 06:43:45;;;;;;;10.70;8.90;;;;;;;35.67;27.05;99072.63;1870720;76;22622;-65
2021/09/12 06:46:39;;;;;;;15.20;9.05;;;;;;;35.89;26.67;99071.52;1870674;76;22216;-66
2021/09/12 06:49:15;;;;;;;11.60;8.53;;;;;;;36.11;26.53;99071.75;1890018;76;22062;-63
2021/09/12 06:51:50;;;;;;;12.63;9.70;;;;;;;36.36;26.39;99072.95;1874164;76;27843;-65
2021/09/12 06:54:24;;;;;;;11.90;9.13;;;;;;;36.91;25.31;99077.11;1870612;76;22473;-64
2021/09/12 06:57:01;;;;;;;10.13;8.38;;;;;;;36.66;25.36;99077.28;1889942;76;22082;-64
2021/09/12 06:59:36;;;;;;;11.87;9.30;;;;;;;36.46;25.30;99078.67;1854791;76;27909;-63
2021/09/12 07:02:12;;;;;;;10.90;9.45;;;;;;;36.45;25.53;99076.96;1870723;76;22216;-66
2021/09/12 07:04:46;;;;;;;12.05;9.60;;;;;;;36.27;25.30;99078.20;1854939;76;28329;-65
2021/09/12 07:07:41;;;;;;;10.85;8.85;;;;;;;36.59;25.31;99075.70;1870798;76;22047;-64
2021/09/12 07:10:18;;;;;;;11.65;8.85;;;;;;;36.53;25.29;99086.14;1890004;76;22618;-64
2021/09/12 07:12:53;;;;;;;12.68;9.40;;;;;;;36.26;25.78;99077.02;1870841;76;22059;-66
2021/09/12 07:15:47;;;;;;;12.98;9.10;;;;;;;36.16;25.99;99084.26;1889909;76;22086;-66
2021/09/12 07:18:21;;;;;;;11.73;9.58;;;;;;;36.43;25.99;99087.00;1890017;76;22165;-65
2021/09/12 07:20:56;;;;;;;12.63;8.88;;;;;;;36.50;25.86;99090.81;1870685;76;22152;-66
2021/09/12 07:23:32;;;;;;;12.17;9.37;;;;;;;36.37;26.33;99084.91;1874018;76;27899;-64
2021/09/12 07:26:06;;;;;;;11.25;8.33;;;;;;;36.34;26.02;99091.92;1835249;77;22082;-65
2021/09/12 07:28:41;;;;;;;13.93;9.08;;;;;;;36.42;25.99;99085.32;1870688;76;22156;-64
2021/09/12 07:31:16;;;;;;;10.78;8.40;;;;;;;36.40;25.70;99083.27;1889955;76;22557;-65
2021/09/12 07:33:51;;;;;;;11.00;8.40;;;;;;;36.49;25.98;99083.75;1870701;76;22055;-64
2021/09/12 07:36:29;;;;;;;14.83;8.75;;;;;;;36.82;25.98;99082.89;1870678;76;22050;-65
2021/09/12 07:39:05;;;;;;;12.33;9.25;;;;;;;36.85;25.68;99087.13;1889934;76;22053;-63
2021/09/12 07:41:40;;;;;;;11.68;8.63;;;;;;;36.60;25.86;99090.82;1870675;76;22087;-65
2021/09/12 07:44:15;;;;;;;12.05;9.40;;;;;;;36.30;26.16;99090.50;1870696;76;22062;-66
2021/09/12 07:46:49;;;;;;;13.95;9.25;;;;;;;36.27;26.52;99088.95;1870666;76;22051;-65
2021/09/12 07:49:24;;;;;;;10.13;8.88;;;;;;;36.45;26.21;99090.91;1870677;76;22067;-65
2021/09/12 07:51:58;;;;;;;11.60;9.05;;;;;;;36.60;26.26;99095.36;1870667;76;22136;-66
2021/09/12 07:54:33;;;;;;;11.75;8.83;;;;;;;36.96;25.83;99095.00;1889973;76;22069;-64
2021/09/12 07:57:08;;;;;;;11.25;9.15;;;;;;;37.02;25.74;99093.55;1870686;76;22144;-64
2021/09/12 07:59:42;;;;;;;13.32;8.23;;;;;;;37.26;25.66;99095.23;1884947;75;22265;-64
2021/09/12 08:02:23;;;;;;;11.10;9.08;;;;;;;37.64;25.09;99100.55;1884977;76;22133;-57
2021/09/12 08:04:59;;;;;;;10.45;8.23;;;;;;;37.80;24.69;99096.66;1854349;76;22113;-62
2021/09/12 08:07:52;;;;;;;12.05;8.95;;;;;;;37.94;24.35;99095.28;1889877;76;22244;-62
2021/09/12 08:10:33;;;;;;;13.90;8.85;;;;;;;37.82;24.72;99097.86;1869782;76;22075;-63
2021/09/12 08:13:09;;;;;;;14.00;8.93;;;;;;;37.24;25.13;99088.30;1870973;76;22212;-63
2021/09/12 08:15:44;;;;;;;11.53;9.00;;;;;;;36.72;25.57;99090.16;1870611;76;22546;-61
2021/09/12 08:18:37;;;;;;;10.85;8.45;;;;;;;36.26;26.24;99085.93;1889825;76;22662;-64
2021/09/12 08:21:14;;;;;;;13.83;8.43;;;;;;;36.12;26.81;99085.52;1870401;76;22073;-61
2021/09/12 08:23:49;;;;;;;11.35;7.97;;;;;;;36.17;26.69;99081.41;1889940;76;22070;-62
2021/09/12 08:26:30;;;;;;;10.75;7.60;;;;;;;36.27;26.48;99081.39;1869827;76;22098;-63
2021/09/12 08:29:31;;;;;;;10.35;7.58;;;;;;;35.85;26.88;99081.70;1889907;76;22135;-62
2021/09/12 08:32:27;;;;;;;9.47;7.87;;;;;;;35.81;25.86;99083.80;1862554;75;27969;-61
2021/09/12 08:35:02;;;;;;;11.53;8.23;;;;;;;35.60;25.93;99081.27;1870669;76;22224;-63
2021/09/12 08:37:38;;;;;;;11.83;8.15;;;;;;;35.15;26.74;99076.34;1870645;76;22493;-63
2021/09/12 08:40:14;;;;;;;12.93;8.93;;;;;;;34.75;27.24;99078.98;1874019;76;27916;-61
2021/09/12 08:42:51;;;;;;;11.18;7.80;;;;;;;34.45;27.64;99079.31;1870589;76;22086;-63
2021/09/12 08:45:31;;;;;;;11.50;8.50;;;;;;;34.35;28.07;99075.23;1869819;76;22084;-65
2021/09/12 08:48:25;;;;;;;12.10;8.05;;;;;;;34.04;28.12;99082.30;1870607;76;22141;-64
2021/09/12 08:50:59;;;;;;;12.80;8.23;;;;;;;33.84;28.24;99076.44;1870643;76;22580;-62
2021/09/12 08:53:34;;;;;;;13.08;8.13;;;;;;;33.55;28.56;99077.53;1889936;76;22074;-63
2021/09/12 08:56:10;;;;;;;13.45;8.95;;;;;;;33.28;29.00;99070.78;1854805;76;28517;-63
2021/09/12 08:58:45;;;;;;;14.40;9.20;;;;;;;32.71;29.68;99070.42;1870607;76;22047;-61
2021/09/12 09:01:32;;;;;;;12.20;8.63;;;;;;;31.97;30.93;99061.41;1869704;76;22178;-60
2021/09/12 09:04:07;;;;;;;16.10;9.05;;;;;;;31.52;31.76;99067.84;1870578;76;22090;-61
2021/09/12 09:07:10;;;;;;;12.47;9.28;;;;;;;31.07;31.56;99063.56;1859713;76;22120;-60
2021/09/12 09:09:48;;;;;;;14.85;8.98;;;;;;;30.45;32.94;99059.86;1870682;76;22228;-61
2021/09/12 09:12:42;;;;;;;12.93;9.28;;;;;;;29.70;33.08;99061.44;1870638;76;22505;-60
2021/09/12 09:15:22;;;;;;;14.33;9.27;;;;;;;29.24;33.81;99058.62;1854948;76;27938;-59
2021/09/12 09:17:57;;;;;;;12.82;9.03;;;;;;;28.91;34.14;99054.95;1889955;76;22243;-58
2021/09/12 09:20:51;;;;;;;13.75;9.53;;;;;;;28.55;35.14;99046.52;1870619;76;22244;-60
2021/09/12 09:23:27;;;;;;;16.45;10.55;;;;;;;28.24;36.15;99050.61;1873860;76;28314;-60
2021/09/12 09:26:21;;;;;;;12.50;9.15;;;;;;;27.79;36.83;99044.44;1870562;76;22050;-59
2021/09/12 09:28:56;;;;;;;12.70;9.53;;;;;;;27.23;38.07;99039.64;1870646;76;22528;-59
2021/09/12 09:31:32;;;;;;;14.05;10.32;;;;;;;26.83;39.15;99040.95;1854647;76;28340;-62
2021/09/12 09:34:16;;;;;;;15.80;11.07;;;;;;;26.62;40.09;99040.33;1854952;76;27931;-60
2021/09/12 09:37:20;;;;;;;18.35;10.85;;;;;;;26.40;39.90;99033.95;1870768;76;22141;-59
2021/09/12 09:40:15;;;;;;;14.80;10.05;;;;;;;26.28;41.50;99030.63;1870554;76;22147;-59
2021/09/12 09:42:50;;;;;;;13.88;10.15;;;;;;;26.30;41.39;99026.97;1870632;76;22129;-59
2021/09/12 09:45:44;;;;;;;17.20;10.15;;;;;;;26.30;41.06;99019.50;1889943;76;22167;-62
2021/09/12 09:48:19;;;;;;;12.78;10.35;;;;;;;26.27;40.88;99024.48;1870756;76;22141;-64
2021/09/12 09:50:53;;;;;;;16.00;10.53;;;;;;;26.12;40.73;99028.78;1889890;76;22100;-57
2021/09/12 09:53:35;;;;;;;13.78;10.50;;;;;;;25.98;40.60;99032.63;1870674;76;22542;-61
2021/09/12 09:56:10;;;;;;;18.00;10.65;;;;;;;25.84;41.01;99025.81;1870679;76;22617;-64
2021/09/12 09:59:16;;;;;;;24.40;10.40;;;;;;;25.76;40.69;99020.44;1869802;76;22586;-60
2021/09/12 10:01:58;;;;;;;15.10;11.05;;;;;;;25.72;41.13;99020.23;1869704;76;22639;-61
2021/09/12 10:04:34;;;;;;;15.43;10.35;;;;;;;25.83;41.36;99017.52;1870416;76;22144;-64
2021/09/12 10:07:11;;;;;;;13.35;10.50;;;;;;;25.94;40.43;99021.80;1870674;76;22189;-58
2021/09/12 10:09:46;;;;;;;14.78;10.38;;;;;;;25.89;40.43;99020.70;1870617;76;22137;-56
2021/09/12 10:12:22;;;;;;;14.70;10.05;;;;;;;25.92;40.66;99019.70;1870625;76;22571;-58
2021/09/12 10:15:05;;;;;;;14.58;10.55;;;;;;;25.87;40.96;99017.28;1870329;76;22227;-60
2021/09/12 10:17:47;;;;;;;13.40;10.10;;;;;;;25.90;41.32;99018.91;1869738;76;22152;-61
2021/09/12 10:20:30;;;;;;;16.50;11.08;;;;;;;26.05;41.33;99017.28;1870637;76;22113;-60
2021/09/12 10:23:08;;;;;;;16.50;10.48;;;;;;;26.00;40.83;99012.22;1870681;76;22188;-58
2021/09/12 10:26:03;;;;;;;13.62;10.50;;;;;;;25.93;41.21;99012.17;1870712;76;22120;-60
2021/09/12 10:28:57;;;;;;;15.10;10.38;;;;;;;25.90;40.85;99007.89;1889924;76;22238;-61
2021/09/12 10:31:37;;;;;;;19.85;10.85;;;;;;;25.98;40.82;99012.79;1889933;76;22159;-65
2021/09/12 10:34:13;;;;;;;13.55;10.13;;;;;;;26.19;40.78;99001.08;1870797;76;22555;-60
2021/09/12 10:36:46;;;;;;;16.23;9.90;;;;;;;26.40;40.04;99004.85;1889833;76;22621;-57
2021/09/12 10:39:31;;;;;;;16.33;11.17;;;;;;;26.52;39.66;99000.27;1854940;76;27986;-61
2021/09/12 10:42:18;;;;;;;15.20;10.53;;;;;;;26.62;39.81;98998.83;1870659;76;22148;-62
2021/09/12 10:45:20;;;;;;;16.00;10.45;;;;;;;26.70;39.94;98997.56;1870552;76;22222;-67
2021/09/12 10:48:18;;;;;;;16.20;10.13;;;;;;;26.63;40.19;98996.55;1834349;77;22168;-64
2021/09/12 10:50:53;;;;;;;14.13;9.85;;;;;;;26.59;40.14;98998.15;1889831;76;22136;-62
2021/09/12 10:53:59;;;;;;;13.25;9.80;;;;;;;26.57;39.69;98994.25;1889882;76;22156;-63
2021/09/12 10:56:36;;;;;;;14.25;9.90;;;;;;;26.65;39.71;98995.63;1889884;76;22534;-63
2021/09/12 10:59:31;;;;;;;12.77;10.63;;;;;;;26.74;39.03;98992.02;1873924;76;28369;-70
2021/09/12 11:02:06;;;;;;;12.75;10.05;;;;;;;26.85;38.81;98992.74;1870611;76;22109;-57
2021/09/12 22:02:38;;;;;;;51.00;36.73;;;;;;;17.55;63.59;98835.87;1821185;77;22186;-65
2021/09/12 22:05:21;;;;;;;26.80;19.52;;;;;;;17.55;63.35;98838.05;1869752;76;22132;-64
2021/09/12 22:07:56;;;;;;;37.20;24.98;;;;;;;17.56;62.50;98830.62;1870589;76;22527;-66
2021/09/12 22:10:31;;;;;;;26.55;17.48;;;;;;;17.62;62.36;98832.25;1870683;76;22133;-63
2021/09/12 22:13:06;;;;;;;26.12;15.60;;;;;;;17.64;61.90;98834.84;1870718;76;22181;-67
2021/09/12 22:15:42;;;;;;;21.27;14.80;;;;;;;17.68;61.42;98833.88;1854628;76;28350;-66
2021/09/12 22:18:17;;;;;;;19.30;12.85;;;;;;;17.77;60.76;98831.09;1889937;76;22145;-66
2021/09/12 22:20:53;;;;;;;26.05;18.40;;;;;;;17.84;59.90;98824.05;1854629;76;27979;-69
2021/09/12 22:23:27;;;;;;;24.12;18.37;;;;;;;17.96;59.38;98832.48;1890023;76;22143;-79
2021/09/12 22:26:04;;;;;;;51.75;37.28;;;;;;;18.04;59.07;98827.09;1870494;76;22156;-74
2021/09/12 22:28:39;;;;;;;88.33;69.00;;;;;;;18.12;59.06;98830.39;1854751;76;27930;-76
2021/09/12 22:31:15;;;;;;;83.05;61.15;;;;;;;18.20;59.79;98830.22;1870620;76;22140;-71
2021/09/12 22:33:50;;;;;;;45.98;36.83;;;;;;;18.18;59.62;98830.23;1873919;76;28124;-71
2021/09/12 22:36:27;;;;;;;24.25;16.25;;;;;;;18.22;58.95;98821.91;1889945;76;22136;-77
2021/09/12 22:39:03;;;;;;;32.90;18.37;;;;;;;18.23;58.38;98825.77;1870645;76;22148;-73
2021/09/12 22:41:39;;;;;;;24.05;15.48;;;;;;;18.27;58.03;98828.31;1871243;76;22164;-74
2021/09/12 22:44:14;;;;;;;31.25;23.12;;;;;;;18.28;57.95;98827.44;1871829;76;22157;-69
2021/09/12 22:46:49;;;;;;;27.13;19.27;;;;;;;18.29;58.05;98826.53;1870855;76;22156;-67
2021/09/12 22:49:24;;;;;;;30.32;19.62;;;;;;;18.26;58.13;98824.84;1889965;76;22151;-65
2021/09/12 22:51:59;;;;;;;25.80;19.48;;;;;;;18.24;58.09;98821.41;1870666;76;22559;-69
2021/09/12 22:54:35;;;;;;;57.23;42.67;;;;;;;18.22;58.14;98824.52;1870612;76;22132;-65
2021/09/12 22:57:13;;;;;;;45.80;30.08;;;;;;;18.19;58.85;98821.95;1870494;76;22139;-65
2021/09/12 22:59:49;;;;;;;38.23;25.05;;;;;;;18.04;58.44;98823.59;1870516;76;22563;-66
2021/09/12 23:02:43;;;;;;;23.40;17.52;;;;;;;18.08;58.79;98818.28;1870647;76;22137;-66
2021/09/12 23:05:20;;;;;;;24.87;17.23;;;;;;;18.07;58.33;98822.25;1870425;76;22168;-66
2021/09/12 23:07:55;;;;;;;24.72;16.42;;;;;;;18.06;58.24;98819.20;1854607;76;28488;-65
2021/09/12 23:10:32;;;;;;;25.52;16.80;;;;;;;18.10;58.08;98820.88;1870450;76;22163;-66